Time,TemperatureF,DewpointF,PressureIn,WindDirection,WindDirectionDegrees,WindSpeedMPH,WindSpeedGustMPH,Humidity,HourlyPrecipIn,Conditions,Clouds,dailyrainin,SolarRadiationWatts/m^2,SoftwareType,DateUTC
2013-02-10 00:01:00,28.0,28.0,-100.00,SE,140,7.0,12.0,98,0.00,,,0.00,1.000000,,2013-02-10 06:01:00,
2013-02-10 00:32:00,28.0,28.0,-100.00,SE,124,7.0,10.0,99,0.00,,,0.00,1.000000,,2013-02-10 06:32:00,
2013-02-10 00:42:00,28.0,28.0,-100.00,SE,124,7.0,10.0,99,0.00,,,0.00,1.000000,,2013-02-10 06:42:00,
2013-02-10 00:52:00,28.0,28.0,-100.00,SE,124,7.0,10.0,99,0.00,,,0.00,1.000000,,2013-02-10 06:52:00,
2013-02-10 01:01:00,28.0,28.0,-100.00,SE,124,7.0,10.0,99,0.00,,,0.00,1.000000,,2013-02-10 07:01:00,
2013-02-10 01:32:00,28.0,28.0,-100.00,SE,125,6.0,11.0,100,0.00,,,0.00,1.000000,,2013-02-10 07:32:00,
2013-02-10 01:42:00,28.0,28.0,-100.00,SE,125,6.0,11.0,100,0.00,,,0.00,1.000000,,2013-02-10 07:42:00,
2013-02-10 01:52:00,28.0,28.0,-100.00,SE,125,6.0,11.0,100,0.00,,,0.00,1.000000,,2013-02-10 07:52:00,
2013-02-10 02:01:00,28.0,28.0,-100.00,SE,125,6.0,11.0,100,0.00,,,0.00,1.000000,,2013-02-10 08:01:00,
2013-02-10 02:32:00,27.0,27.0,-100.00,SE,127,7.0,12.0,99,0.00,,,0.00,1.000000,,2013-02-10 08:32:00,
2013-02-10 02:43:00,27.0,27.0,-100.00,SE,127,7.0,12.0,99,0.00,,,0.00,1.000000,,2013-02-10 08:43:00,
2013-02-10 02:52:00,27.0,27.0,-100.00,SE,127,7.0,12.0,99,0.00,,,0.00,1.000000,,2013-02-10 08:52:00,
2013-02-10 03:02:00,27.0,27.0,-100.00,SE,127,7.0,12.0,99,0.00,,,0.00,1.000000,,2013-02-10 09:02:00,
2013-02-10 03:32:00,27.0,26.0,-100.00,ESE,122,7.0,14.0,95,0.00,,,0.00,1.000000,,2013-02-10 09:32:00,
2013-02-10 03:42:00,27.0,26.0,-100.00,ESE,122,7.0,14.0,95,0.00,,,0.00,1.000000,,2013-02-10 09:42:00,
2013-02-10 03:52:00,27.0,26.0,-100.00,ESE,122,7.0,14.0,95,0.00,,,0.00,1.000000,,2013-02-10 09:52:00,
2013-02-10 04:01:00,27.0,26.0,-100.00,ESE,122,7.0,14.0,95,0.00,,,0.00,1.000000,,2013-02-10 10:01:00,
2013-02-10 04:32:00,27.0,25.0,-100.00,East,88,8.0,12.0,93,0.00,,,0.00,1.000000,,2013-02-10 10:32:00,
2013-02-10 04:42:00,27.0,25.0,-100.00,East,88,8.0,12.0,93,0.00,,,0.00,1.000000,,2013-02-10 10:42:00,
2013-02-10 04:52:00,27.0,25.0,-100.00,East,88,8.0,12.0,93,0.00,,,0.00,1.000000,,2013-02-10 10:52:00,
2013-02-10 05:01:00,27.0,25.0,-100.00,East,88,8.0,12.0,93,0.00,,,0.00,1.000000,,2013-02-10 11:01:00,
2013-02-10 05:32:00,27.0,26.0,-100.00,East,92,10.0,14.0,94,0.00,,,0.00,1.000000,,2013-02-10 11:32:00,
2013-02-10 05:42:00,27.0,26.0,-100.00,East,92,10.0,14.0,94,0.00,,,0.00,1.000000,,2013-02-10 11:42:00,
2013-02-10 05:52:00,27.0,26.0,-100.00,East,92,10.0,14.0,94,0.00,,,0.00,1.000000,,2013-02-10 11:52:00,
2013-02-10 06:02:00,27.0,26.0,-100.00,East,92,10.0,14.0,94,0.00,,,0.00,1.000000,,2013-02-10 12:02:00,
2013-02-10 09:32:00,25.0,23.0,-100.00,East,81,13.0,21.0,91,-99.99,,,0.00,29.000000,,2013-02-10 15:32:00,
2013-02-10 09:42:00,25.0,23.0,-100.00,East,81,13.0,21.0,91,-99.99,,,0.00,29.000000,,2013-02-10 15:42:00,
2013-02-10 09:52:00,25.0,23.0,-100.00,East,81,13.0,21.0,91,-99.99,,,0.00,29.000000,,2013-02-10 15:52:00,
2013-02-10 10:02:00,25.0,23.0,-100.00,East,81,13.0,21.0,91,-99.99,,,0.00,29.000000,,2013-02-10 16:02:00,
2013-02-10 10:32:00,25.0,23.0,-100.00,ENE,65,14.0,22.0,91,0.00,,,0.00,42.000000,,2013-02-10 16:32:00,
2013-02-10 10:42:00,25.0,23.0,-100.00,ENE,65,14.0,22.0,91,0.00,,,0.00,42.000000,,2013-02-10 16:42:00,
2013-02-10 10:52:00,25.0,23.0,-100.00,ENE,65,14.0,22.0,91,0.00,,,0.00,42.000000,,2013-02-10 16:52:00,
2013-02-10 11:02:00,25.0,23.0,-100.00,ENE,65,14.0,22.0,91,0.00,,,0.00,42.000000,,2013-02-10 17:02:00,
2013-02-10 11:32:00,25.0,23.0,-100.00,ENE,69,14.0,24.0,92,0.00,,,0.00,36.000000,,2013-02-10 17:32:00,
2013-02-10 11:42:00,25.0,23.0,-100.00,ENE,69,14.0,24.0,92,0.00,,,0.00,36.000000,,2013-02-10 17:42:00,
2013-02-10 11:52:00,25.0,23.0,-100.00,ENE,69,14.0,24.0,92,0.00,,,0.00,36.000000,,2013-02-10 17:52:00,
2013-02-10 12:02:00,25.0,23.0,-100.00,ENE,69,14.0,24.0,92,0.00,,,0.00,36.000000,,2013-02-10 18:02:00,
2013-02-10 12:32:00,26.0,24.0,-100.00,NE,51,9.0,19.0,93,0.00,,,0.00,43.000000,,2013-02-10 18:32:00,
2013-02-10 12:42:00,26.0,24.0,-100.00,NE,51,9.0,19.0,93,0.00,,,0.00,43.000000,,2013-02-10 18:42:00,
2013-02-10 12:52:00,26.0,24.0,-100.00,NE,51,9.0,19.0,93,0.00,,,0.00,43.000000,,2013-02-10 18:52:00,
2013-02-10 13:02:00,26.0,24.0,-100.00,NE,51,9.0,19.0,93,0.00,,,0.00,43.000000,,2013-02-10 19:02:00,
2013-02-10 13:32:00,27.0,26.0,-100.00,ENE,59,11.0,19.0,95,0.00,,,0.00,65.000000,,2013-02-10 19:32:00,
2013-02-10 13:43:00,27.0,26.0,-100.00,ENE,59,11.0,19.0,95,0.00,,,0.00,65.000000,,2013-02-10 19:43:00,
2013-02-10 13:52:00,27.0,26.0,-100.00,ENE,59,11.0,19.0,95,0.00,,,0.00,65.000000,,2013-02-10 19:52:00,
2013-02-10 14:02:00,27.0,26.0,-100.00,ENE,59,11.0,19.0,95,0.00,,,0.00,65.000000,,2013-02-10 20:02:00,
2013-02-10 14:32:00,27.0,27.0,-100.00,ENE,59,8.0,19.0,98,0.00,,,0.00,46.000000,,2013-02-10 20:32:00,
2013-02-10 14:42:00,27.0,27.0,-100.00,ENE,59,8.0,19.0,98,0.00,,,0.00,46.000000,,2013-02-10 20:42:00,
2013-02-10 14:52:00,27.0,27.0,-100.00,ENE,59,8.0,19.0,98,0.00,,,0.00,46.000000,,2013-02-10 20:52:00,
2013-02-10 15:02:00,27.0,27.0,-100.00,ENE,59,8.0,19.0,98,0.00,,,0.00,46.000000,,2013-02-10 21:02:00,
2013-02-10 15:32:00,28.0,27.0,-100.00,NE,53,8.0,16.0,97,0.00,,,0.00,116.000000,,2013-02-10 21:32:00,
2013-02-10 15:42:00,28.0,27.0,-100.00,NE,53,8.0,16.0,97,0.00,,,0.00,116.000000,,2013-02-10 21:42:00,
2013-02-10 15:52:00,28.0,27.0,-100.00,NE,53,8.0,16.0,97,0.00,,,0.00,116.000000,,2013-02-10 21:52:00,
2013-02-10 16:02:00,28.0,27.0,-100.00,NE,53,8.0,16.0,97,0.00,,,0.00,116.000000,,2013-02-10 22:02:00,
2013-02-10 16:32:00,28.0,27.0,-100.00,NE,48,7.0,16.0,97,0.00,,,0.00,128.000000,,2013-02-10 22:32:00,
2013-02-10 16:42:00,28.0,27.0,-100.00,NE,48,7.0,16.0,97,0.00,,,0.00,128.000000,,2013-02-10 22:42:00,
2013-02-10 16:52:00,28.0,27.0,-100.00,NE,48,7.0,16.0,97,0.00,,,0.00,128.000000,,2013-02-10 22:52:00,
2013-02-10 17:02:00,28.0,27.0,-100.00,NE,48,7.0,16.0,97,0.00,,,0.00,128.000000,,2013-02-10 23:02:00,
2013-02-10 17:32:00,27.0,27.0,-100.00,NE,48,8.0,17.0,98,0.00,,,0.00,33.000000,,2013-02-10 23:32:00,
2013-02-10 17:42:00,27.0,27.0,-100.00,NE,48,8.0,17.0,98,0.00,,,0.00,33.000000,,2013-02-10 23:42:00,
2013-02-10 17:52:00,27.0,27.0,-100.00,NE,48,8.0,17.0,98,0.00,,,0.00,33.000000,,2013-02-10 23:52:00,
2013-02-10 18:02:00,27.0,27.0,-100.00,NE,48,8.0,17.0,98,0.00,,,0.00,33.000000,,2013-02-11 00:02:00,
2013-02-10 18:32:00,27.0,27.0,-100.00,NE,38,8.0,15.0,99,0.00,,,0.00,3.000000,,2013-02-11 00:32:00,
2013-02-10 18:42:00,27.0,27.0,-100.00,NE,38,8.0,15.0,99,0.00,,,0.00,3.000000,,2013-02-11 00:42:00,
2013-02-10 18:52:00,27.0,27.0,-100.00,NE,38,8.0,15.0,99,0.00,,,0.00,3.000000,,2013-02-11 00:52:00,
2013-02-10 19:01:00,27.0,27.0,-100.00,NE,38,8.0,15.0,99,0.00,,,0.00,3.000000,,2013-02-11 01:01:00,
2013-02-10 20:32:00,28.0,28.0,-100.00,NNE,27,7.0,13.0,99,-99.99,,,0.00,1.000000,,2013-02-11 02:32:00,
2013-02-10 20:42:00,28.0,28.0,-100.00,NNE,27,7.0,13.0,99,-99.99,,,0.00,1.000000,,2013-02-11 02:42:00,
2013-02-10 20:52:00,28.0,28.0,-100.00,NNE,27,7.0,13.0,99,-99.99,,,0.00,1.000000,,2013-02-11 02:52:00,
2013-02-10 21:02:00,28.0,28.0,-100.00,NNE,27,7.0,13.0,99,-99.99,,,0.00,1.000000,,2013-02-11 03:02:00,
2013-02-10 21:32:00,29.0,29.0,-100.00,NNE,21,7.0,12.0,100,0.00,,,-99.99,1.000000,,2013-02-11 03:32:00,
2013-02-10 21:42:00,29.0,29.0,-100.00,NNE,21,7.0,12.0,100,0.00,,,-99.99,1.000000,,2013-02-11 03:42:00,
2013-02-10 21:52:00,29.0,29.0,-100.00,NNE,21,7.0,12.0,100,0.00,,,-99.99,1.000000,,2013-02-11 03:52:00,
2013-02-10 22:01:00,29.0,29.0,-100.00,NNE,21,7.0,12.0,100,0.00,,,-99.99,1.000000,,2013-02-11 04:01:00,
2013-02-10 22:32:00,30.0,30.0,-100.00,North,6,6.0,11.0,100,0.00,,,0.00,1.000000,,2013-02-11 04:32:00,
2013-02-10 22:42:00,30.0,30.0,-100.00,North,6,6.0,11.0,100,0.00,,,0.00,1.000000,,2013-02-11 04:42:00,
2013-02-10 22:52:00,30.0,30.0,-100.00,North,6,6.0,11.0,100,0.00,,,0.00,1.000000,,2013-02-11 04:52:00,
2013-02-10 23:01:00,30.0,30.0,-100.00,North,6,6.0,11.0,100,0.00,,,0.00,1.000000,,2013-02-11 05:01:00,
2013-02-10 23:32:00,30.0,30.0,-100.00,NNW,347,7.0,12.0,100,0.00,,,0.00,1.000000,,2013-02-11 05:32:00,
2013-02-10 23:42:00,30.0,30.0,-100.00,NNW,347,7.0,12.0,100,0.00,,,0.00,1.000000,,2013-02-11 05:42:00,
2013-02-10 23:53:00,30.0,30.0,-100.00,NNW,347,7.0,12.0,100,0.00,,,0.00,1.000000,,2013-02-11 05:53:00,